createdAt,value
2023-01-04T00:00:36.126Z,102229.91
2023-01-04T00:03:38.602Z,102214.09
2023-01-04T00:06:40.649Z,102222.59
2023-01-04T00:09:43.724Z,102233.66
2023-01-04T00:12:46.158Z,102227.53
2023-01-04T00:15:48.705Z,102254.91
2023-01-04T00:18:52.937Z,102257.78
2023-01-04T00:21:55.083Z,102257.97
2023-01-04T00:24:58.052Z,102266.63
2023-01-04T00:28:00.122Z,102254.56
2023-01-04T00:31:05.229Z,102274.13
2023-01-04T00:34:07.642Z,102279.38
2023-01-04T00:37:09.723Z,102266.94
2023-01-04T00:40:13.564Z,102270.81
2023-01-04T00:43:18.035Z,102282.38
2023-01-04T00:46:22.617Z,102294.09
2023-01-04T00:49:25.733Z,102294.06
2023-01-04T00:52:29.609Z,102288.47
2023-01-04T00:55:31.742Z,102290.81
2023-01-04T00:58:34.134Z,102291.13
2023-01-04T01:01:36.305Z,102289.97
2023-01-04T01:04:38.390Z,102298.09
2023-01-04T01:07:40.432Z,102300.13
2023-01-04T01:10:42.500Z,102306.94
2023-01-04T01:13:45.012Z,102300.97
2023-01-04T01:16:57.019Z,102278.69
2023-01-04T01:20:00.510Z,102292.13
2023-01-04T01:23:02.691Z,102304.19
2023-01-04T01:26:07.652Z,102290.22
2023-01-04T01:29:09.752Z,102305.88
2023-01-04T01:32:11.785Z,102300.66
2023-01-04T01:35:14.290Z,102290.81
2023-01-04T01:38:16.396Z,102304.38
2023-01-04T01:41:18.733Z,102305.94
2023-01-04T01:44:42.616Z,102296.59
2023-01-04T01:47:47.602Z,102290.28
2023-01-04T01:50:57.977Z,102281.78
2023-01-04T01:54:07.074Z,102268.84
2023-01-04T01:57:12.963Z,102296.91
2023-01-04T02:00:16.273Z,102278.19
2023-01-04T02:03:30.800Z,102284.47
2023-01-04T02:06:38.179Z,102288.50
2023-01-04T02:09:41.101Z,102281.84
2023-01-04T02:12:45.102Z,102289.97
2023-01-04T02:16:10.241Z,102271.47
2023-01-04T02:19:30.406Z,102283.47
2023-01-04T02:23:08.483Z,102282.31
2023-01-04T02:26:27.208Z,102283.44
2023-01-04T02:29:57.988Z,102291.44
2023-01-04T02:33:22.872Z,102293.59
2023-01-04T02:36:51.853Z,102298.66
2023-01-04T02:40:21.596Z,102309.16
2023-01-04T02:43:48.805Z,102290.44
2023-01-04T02:46:58.292Z,102294.38
2023-01-04T02:50:19.202Z,102298.03
2023-01-04T02:53:25.386Z,102291.94
2023-01-04T02:57:05.172Z,102301.06
2023-01-04T03:00:15.111Z,102311.41
2023-01-04T03:03:46.931Z,102312.91
2023-01-04T03:06:59.196Z,102313.91
2023-01-04T03:10:09.943Z,102313.66
2023-01-04T03:13:18.661Z,102307.16
2023-01-04T03:16:23.461Z,102312.16
2023-01-04T03:19:59.034Z,102318.22
2023-01-04T03:23:32.645Z,102318.03
2023-01-04T03:27:09.183Z,102305.59
2023-01-04T03:30:33.112Z,102297.81
2023-01-04T03:33:54.115Z,102301.50
2023-01-04T03:37:19.344Z,102313.56
2023-01-04T03:40:47.193Z,102310.31
2023-01-04T03:44:49.588Z,102309.53
2023-01-04T03:48:20.649Z,102315.16
2023-01-04T03:51:28.284Z,102311.56
2023-01-04T03:54:36.074Z,102316.44
2023-01-04T03:57:40.166Z,102311.81
2023-01-04T04:00:42.410Z,102326.00
2023-01-04T04:04:03.582Z,102324.84
2023-01-04T04:07:24.367Z,102335.19
2023-01-04T04:10:27.877Z,102326.00
2023-01-04T04:13:31.884Z,102335.75
2023-01-04T04:16:34.025Z,102353.28
2023-01-04T04:19:36.419Z,102336.44
2023-01-04T04:22:38.607Z,102367.47
2023-01-04T04:25:40.615Z,102371.03
2023-01-04T04:28:44.454Z,102359.00
2023-01-04T04:31:46.853Z,102362.75
2023-01-04T04:34:48.921Z,102364.53
2023-01-04T04:37:51.181Z,102378.16
2023-01-04T04:41:12.021Z,102367.31
2023-01-04T04:44:20.054Z,102370.03
2023-01-04T04:47:22.586Z,102379.25
2023-01-04T04:50:24.732Z,102372.59
2023-01-04T04:53:26.913Z,102369.16
2023-01-04T04:56:28.988Z,102391.25
2023-01-04T04:59:31.729Z,102381.78
2023-01-04T05:02:34.781Z,102374.13
2023-01-04T05:05:38.874Z,102383.22
2023-01-04T05:08:40.957Z,102379.19
2023-01-04T05:12:01.591Z,102378.25
2023-01-04T05:15:05.057Z,102367.88
2023-01-04T05:18:12.126Z,102365.88
2023-01-04T05:21:18.417Z,102368.50
2023-01-04T05:24:22.311Z,102372.69
2023-01-04T05:27:25.588Z,102381.19
2023-01-04T05:30:46.267Z,102382.56
2023-01-04T05:33:48.387Z,102376.22
2023-01-04T05:36:50.677Z,102379.59
2023-01-04T05:39:52.705Z,102377.41
2023-01-04T05:42:54.963Z,102381.59
2023-01-04T05:45:57.242Z,102380.63
2023-01-04T05:48:59.378Z,102366.94
2023-01-04T05:52:01.426Z,102391.84
2023-01-04T05:55:04.158Z,102384.69
2023-01-04T05:58:06.704Z,102374.06
2023-01-04T06:01:08.952Z,102398.41
2023-01-04T06:04:11.166Z,102392.63
2023-01-04T06:07:13.828Z,102386.88
2023-01-04T06:10:16.027Z,102397.94
2023-01-04T06:13:18.794Z,102395.84
2023-01-04T06:16:23.159Z,102397.59
2023-01-04T06:19:27.464Z,102395.34
2023-01-04T06:22:30.450Z,102397.91
2023-01-04T06:25:32.480Z,102404.25
2023-01-04T06:28:40.777Z,102396.09
2023-01-04T06:31:49.268Z,102393.44
2023-01-04T06:34:51.532Z,102407.59
2023-01-04T06:41:12.471Z,102409.06
2023-01-04T06:44:14.847Z,102416.97
2023-01-04T06:47:17.030Z,102432.16
2023-01-04T06:50:19.124Z,102419.69
2023-01-04T06:53:21.541Z,102435.50
2023-01-04T06:56:27.457Z,102429.91
2023-01-04T06:59:29.709Z,102431.69
2023-01-04T07:02:34.448Z,102437.19
2023-01-04T07:05:36.730Z,102448.97
2023-01-04T07:08:41.720Z,102461.22
2023-01-04T07:11:45.909Z,102465.66
2023-01-04T07:14:48.242Z,102458.56
2023-01-04T07:17:51.145Z,102468.78
2023-01-04T07:20:53.255Z,102469.13
2023-01-04T07:23:56.524Z,102478.97
2023-01-04T07:27:02.631Z,102472.41
2023-01-04T07:30:05.199Z,102465.47
2023-01-04T07:33:07.620Z,102471.34
2023-01-04T07:36:09.921Z,102483.94
2023-01-04T07:39:12.886Z,102477.19
2023-01-04T07:42:16.424Z,102483.03
2023-01-04T07:45:18.475Z,102482.84
2023-01-04T07:48:24.925Z,102483.09
2023-01-04T07:51:27.511Z,102479.66
2023-01-04T07:54:29.525Z,102491.66
2023-01-04T07:57:32.993Z,102486.13
2023-01-04T08:00:35.131Z,102490.88
2023-01-04T08:03:37.827Z,102476.81
2023-01-04T08:06:41.033Z,102493.25
2023-01-04T08:09:43.163Z,102496.91
2023-01-04T08:12:45.340Z,102501.50
2023-01-04T08:15:54.481Z,102483.72
2023-01-04T08:19:00.149Z,102490.38
2023-01-04T08:22:02.248Z,102491.88
2023-01-04T08:25:07.456Z,102490.09
2023-01-04T08:28:11.683Z,102490.53
2023-01-04T08:31:19.560Z,102492.53
2023-01-04T08:34:21.636Z,102499.06
2023-01-04T08:37:23.640Z,102490.47
2023-01-04T08:40:25.799Z,102504.25
2023-01-04T08:43:48.151Z,102489.63
2023-01-04T08:46:51.978Z,102483.25
2023-01-04T08:49:54.517Z,102480.53
2023-01-04T08:52:57.585Z,102483.63
2023-01-04T08:56:03.445Z,102480.78
2023-01-04T08:59:07.787Z,102470.34
2023-01-04T09:02:30.389Z,102474.16
2023-01-04T09:05:32.862Z,102454.50
2023-01-04T09:08:41.110Z,102466.47
2023-01-04T09:11:43.092Z,102441.63
2023-01-04T09:14:45.265Z,102457.94
2023-01-04T09:18:20.598Z,102453.03
2023-01-04T09:21:19.087Z,102460.16
2023-01-04T09:24:21.238Z,102439.91
2023-01-04T09:27:23.379Z,102431.47
2023-01-04T09:34:03.469Z,102430.25
2023-01-04T09:36:51.294Z,102417.78
2023-01-04T09:39:54.471Z,102412.41
2023-01-04T09:43:19.951Z,102420.50
2023-01-04T09:46:29.843Z,102420.72
2023-01-04T09:49:46.932Z,102422.19
2023-01-04T09:53:04.873Z,102418.69
2023-01-04T09:56:37.395Z,102408.84
2023-01-04T09:59:39.931Z,102409.81
2023-01-04T10:03:19.995Z,102408.56
2023-01-04T10:06:22.319Z,102394.94
2023-01-04T10:09:24.340Z,102399.94
2023-01-04T10:12:47.682Z,102405.69
2023-01-04T10:16:17.338Z,102407.94
2023-01-04T10:23:22.805Z,102390.66
2023-01-04T10:26:39.791Z,102378.56
2023-01-04T10:30:08.789Z,102376.28
2023-01-04T10:33:15.330Z,102384.63
2023-01-04T10:36:21.713Z,102373.19
2023-01-04T10:39:32.320Z,102359.41
2023-01-04T10:42:42.310Z,102357.59
2023-01-04T10:45:56.528Z,102355.06
2023-01-04T10:49:08.560Z,102341.41
2023-01-04T10:52:17.494Z,102350.75
2023-01-04T10:55:37.278Z,102339.72
2023-01-04T10:59:08.114Z,102320.44
2023-01-04T11:02:47.756Z,102313.69
2023-01-04T11:05:54.737Z,102305.38
2023-01-04T11:09:00.828Z,102314.44
2023-01-04T11:12:03.660Z,102315.53
2023-01-04T11:15:06.218Z,102303.22
2023-01-04T11:18:11.868Z,102311.06
2023-01-04T11:21:16.387Z,102321.63
2023-01-04T11:24:34.640Z,102313.81
2023-01-04T11:27:56.485Z,102308.94
2023-01-04T11:31:19.996Z,102319.53
2023-01-04T11:34:57.110Z,102315.16
2023-01-04T11:38:23.461Z,102297.53
2023-01-04T11:41:27.720Z,102305.06
2023-01-04T11:44:35.276Z,102303.69
2023-01-04T11:47:51.831Z,102302.72
2023-01-04T11:50:56.424Z,102302.44
2023-01-04T11:54:01.337Z,102315.91
2023-01-04T11:57:18.037Z,102310.13
2023-01-04T12:00:39.175Z,102315.41
2023-01-04T12:03:52.465Z,102311.50
2023-01-04T12:07:26.697Z,102311.00
2023-01-04T12:10:44.656Z,102308.78
2023-01-04T12:13:47.088Z,102301.97
2023-01-04T12:17:14.985Z,102298.72
2023-01-04T12:20:28.610Z,102304.53
2023-01-04T12:27:40.755Z,102294.88
2023-01-04T12:31:25.901Z,102291.78
2023-01-04T12:34:51.227Z,102303.50
2023-01-04T12:37:56.288Z,102299.97
2023-01-04T12:50:27.783Z,102290.25
2023-01-04T12:54:08.819Z,102292.97
2023-01-04T12:57:37.048Z,102289.53
2023-01-04T13:00:58.460Z,102281.69
2023-01-04T13:04:05.898Z,102275.53
2023-01-04T13:07:24.179Z,102257.22
2023-01-04T13:11:13.190Z,102174.75
2023-01-04T13:15:00.187Z,102244.78
2023-01-04T13:18:34.240Z,102234.56
2023-01-04T13:21:43.985Z,102220.81
2023-01-04T13:24:51.211Z,102233.53
2023-01-04T13:27:59.306Z,102225.53
2023-01-04T13:31:02.433Z,102221.84
2023-01-04T13:34:04.734Z,102227.41
2023-01-04T13:37:12.730Z,102241.28
2023-01-04T13:40:17.693Z,102240.25
2023-01-04T13:44:01.461Z,102252.78
2023-01-04T13:47:10.626Z,102229.31
2023-01-04T13:51:16.178Z,102241.91
2023-01-04T13:54:22.149Z,102245.44
2023-01-04T13:57:25.403Z,102231.47
2023-01-04T14:05:31.871Z,102235.84
2023-01-04T14:08:39.572Z,102247.72
2023-01-04T14:12:07.761Z,102248.84
2023-01-04T14:18:55.744Z,102241.03
2023-01-04T14:21:58.389Z,102235.09
2023-01-04T14:25:21.563Z,102233.25
2023-01-04T14:28:29.435Z,102228.88
2023-01-04T14:31:45.443Z,102224.72
2023-01-04T14:38:06.802Z,102213.13
2023-01-04T14:42:00.791Z,102219.31
2023-01-04T14:45:03.416Z,102205.72
2023-01-04T14:49:45.880Z,102214.53
2023-01-04T14:52:51.939Z,102205.72
2023-01-04T14:55:54.922Z,102197.13
2023-01-04T14:58:59.183Z,102200.66
2023-01-04T15:02:49.408Z,102180.69
2023-01-04T15:05:51.611Z,102204.28
2023-01-04T15:08:53.657Z,102190.59
2023-01-04T15:11:56.694Z,102201.84
2023-01-04T15:14:58.820Z,102195.38
2023-01-04T15:18:24.155Z,102157.97
2023-01-04T15:25:00.713Z,102135.59
2023-01-04T15:28:03.328Z,102179.09
2023-01-04T15:31:13.319Z,102171.16
2023-01-04T15:34:18.213Z,102176.91
2023-01-04T15:37:24.038Z,102178.69
2023-01-04T15:41:02.571Z,102174.56
2023-01-04T15:44:10.096Z,102167.47
2023-01-04T15:47:12.249Z,102167.72
2023-01-04T15:50:14.329Z,102163.03
2023-01-04T15:57:50.004Z,102169.66
2023-01-04T16:01:25.764Z,102153.66
2023-01-04T16:04:38.944Z,102141.03
2023-01-04T16:07:50.366Z,102158.19
2023-01-04T16:10:52.292Z,102154.16
2023-01-04T16:14:13.546Z,102135.78
2023-01-04T16:17:31.013Z,102138.28
2023-01-04T16:20:50.356Z,102134.31
2023-01-04T16:29:17.349Z,102097.41
2023-01-04T16:32:20.510Z,102129.25
2023-01-04T16:40:41.228Z,102130.78
2023-01-04T16:43:51.444Z,102119.97
2023-01-04T16:46:54.889Z,102106.56
2023-01-04T16:49:57.261Z,102104.13
2023-01-04T16:52:59.589Z,102097.13
2023-01-04T16:56:10.152Z,102101.19
2023-01-04T16:59:18.932Z,102115.44
2023-01-04T17:02:22.072Z,102104.41
2023-01-04T17:05:24.963Z,102116.06
2023-01-04T17:08:27.362Z,102092.16
2023-01-04T17:15:23.527Z,102069.94
2023-01-04T17:18:22.715Z,102061.41
2023-01-04T17:21:34.349Z,102054.44
2023-01-04T17:24:37.119Z,102071.28
2023-01-04T17:27:40.817Z,102034.09
2023-01-04T17:30:43.372Z,102032.13
2023-01-04T17:33:46.051Z,102024.63
2023-01-04T17:39:50.255Z,102028.56
2023-01-04T17:42:52.461Z,102032.59
2023-01-04T17:45:54.576Z,102022.63
2023-01-04T17:49:20.991Z,102029.97
2023-01-04T17:52:30.716Z,102018.06
2023-01-04T17:55:34.999Z,102008.84
2023-01-04T17:58:40.675Z,101998.72
2023-01-04T18:01:43.391Z,101991.06
2023-01-04T18:04:46.591Z,101995.22
2023-01-04T18:07:51.844Z,102000.44
2023-01-04T18:11:09.207Z,101991.16
2023-01-04T18:14:14.141Z,102001.25
2023-01-04T18:17:17.337Z,102010.47
2023-01-04T18:20:25.163Z,102013.63
2023-01-04T18:23:30.228Z,101985.81
2023-01-04T18:26:41.565Z,101989.75
2023-01-04T18:29:53.879Z,101979.94
2023-01-04T18:32:56.041Z,101969.63
2023-01-04T18:36:02.459Z,101962.66
2023-01-04T18:39:05.051Z,101960.13
2023-01-04T18:42:07.172Z,101944.50
2023-01-04T18:45:09.655Z,101955.88
2023-01-04T18:48:11.800Z,101950.44
2023-01-04T18:51:15.898Z,101926.91
2023-01-04T18:54:20.959Z,101940.31
2023-01-04T18:57:23.265Z,101931.00
2023-01-04T19:00:30.019Z,101928.13
2023-01-04T19:03:33.500Z,101912.63
2023-01-04T19:06:35.953Z,101894.16
2023-01-04T19:09:39.840Z,101917.13
2023-01-04T19:12:45.213Z,101901.38
2023-01-04T19:15:48.510Z,101913.03
2023-01-04T19:18:51.225Z,101910.50
2023-01-04T19:21:53.817Z,101899.81
2023-01-04T19:24:55.827Z,101893.34
2023-01-04T19:27:58.209Z,101904.84
2023-01-04T19:31:07.937Z,101910.59
2023-01-04T19:34:10.916Z,101902.16
2023-01-04T19:37:19.968Z,101896.72
2023-01-04T19:40:24.454Z,101897.56
2023-01-04T19:43:26.980Z,101888.78
2023-01-04T19:46:31.979Z,101889.06
2023-01-04T19:49:36.742Z,101870.41
2023-01-04T19:52:38.775Z,101869.97
2023-01-04T19:55:41.007Z,101862.06
2023-01-04T19:58:43.216Z,101846.94
2023-01-04T20:01:46.720Z,101866.16
2023-01-04T20:04:48.856Z,101857.75
2023-01-04T20:07:51.431Z,101850.44
2023-01-04T20:11:02.506Z,101818.06
2023-01-04T20:14:09.214Z,101835.38
2023-01-04T20:17:11.451Z,101814.53
2023-01-04T20:20:15.096Z,101801.09
2023-01-04T20:23:19.057Z,101820.38
2023-01-04T20:26:21.780Z,101826.78
2023-01-04T20:29:24.535Z,101788.09
2023-01-04T20:32:28.333Z,101803.38
2023-01-04T20:35:46.713Z,101780.19
2023-01-04T20:38:49.949Z,101805.06
2023-01-04T20:42:10.733Z,101784.31
2023-01-04T20:45:13.450Z,101795.84
2023-01-04T20:48:17.764Z,101773.50
2023-01-04T20:51:33.403Z,101766.00
2023-01-04T20:54:51.378Z,101774.34
2023-01-04T21:01:22.138Z,101742.97
2023-01-04T21:04:32.357Z,101752.44
2023-01-04T21:07:34.943Z,101739.28
2023-01-04T21:10:47.486Z,101753.84
2023-01-04T21:13:59.021Z,101738.66
2023-01-04T21:17:06.345Z,101751.31
2023-01-04T21:20:15.716Z,101725.38
2023-01-04T21:23:49.522Z,101749.56
2023-01-04T21:27:05.093Z,101737.97
2023-01-04T21:30:22.029Z,101726.44
2023-01-04T21:33:37.182Z,101654.84
2023-01-04T21:37:36.562Z,101721.06
2023-01-04T21:52:23.547Z,101607.94
2023-01-04T21:56:04.193Z,101619.16
2023-01-04T21:59:13.025Z,101576.00
2023-01-04T22:05:34.275Z,101604.44
2023-01-04T22:08:39.681Z,101638.38
2023-01-04T22:11:46.015Z,101633.69
2023-01-04T22:14:53.956Z,101599.00
2023-01-04T22:17:58.061Z,101598.16
2023-01-04T22:21:12.672Z,101593.38
2023-01-04T22:24:15.077Z,101586.44
2023-01-04T22:27:20.690Z,101604.19
2023-01-04T22:30:28.772Z,101579.00
2023-01-04T22:33:32.204Z,101565.16
2023-01-04T22:36:38.385Z,101573.97
2023-01-04T22:39:47.189Z,101567.53
2023-01-04T22:42:49.540Z,101572.31
2023-01-04T22:46:00.108Z,101553.13
2023-01-04T22:49:03.526Z,101563.25
2023-01-04T22:52:05.875Z,101543.22
2023-01-04T22:55:09.497Z,101510.63
2023-01-04T22:58:12.378Z,101501.78
2023-01-04T23:01:14.492Z,101508.41
2023-01-04T23:04:18.628Z,101518.91
2023-01-04T23:07:29.726Z,101500.97
2023-01-04T23:10:33.536Z,101468.03
2023-01-04T23:13:35.824Z,101464.44
2023-01-04T23:16:38.046Z,101478.69
2023-01-04T23:19:41.830Z,101452.44
2023-01-04T23:22:47.057Z,101453.78
2023-01-04T23:25:49.613Z,101429.75
2023-01-04T23:28:53.487Z,101444.16
2023-01-04T23:32:00.543Z,101437.22
2023-01-04T23:35:04.949Z,101443.78
2023-01-04T23:38:07.169Z,101413.38
2023-01-04T23:41:10.533Z,101404.06
2023-01-04T23:47:23.459Z,101404.38
2023-01-04T23:50:26.285Z,101392.38
2023-01-04T23:53:28.459Z,101403.88
2023-01-04T23:56:30.582Z,101388.16
2023-01-04T23:59:33.232Z,101393.91
